Time,TemperatureF,DewpointF,PressureIn,WindDirection,WindDirectionDegrees,WindSpeedMPH,WindSpeedGustMPH,Humidity,HourlyPrecipIn,Conditions,Clouds,dailyrainin,SoftwareType,DateUTC
2013-02-21 00:00:00,36.7,17.4,30.12,NNE,18,0.0,3.0,45,0.00,,---,0.00,VWS V14.01,2013-02-21 05:00:00,
2013-02-21 00:02:00,36.7,18.4,30.12,NNE,18,0.0,1.0,47,0.00,,---,0.00,VWS V14.01,2013-02-21 05:02:00,
2013-02-21 00:08:00,36.4,18.1,30.12,NNE,26,1.0,3.0,47,0.00,,---,0.00,VWS V14.01,2013-02-21 05:08:00,
2013-02-21 00:13:00,36.2,17.4,30.12,NNE,20,1.0,3.0,46,0.00,,---,0.00,VWS V14.01,2013-02-21 05:13:00,
2013-02-21 00:18:00,36.1,16.8,30.12,NNE,29,0.0,3.0,45,0.00,,---,0.00,VWS V14.01,2013-02-21 05:18:00,
2013-02-21 00:23:00,36.0,17.2,30.12,NE,39,0.0,3.0,46,0.00,,---,0.00,VWS V14.01,2013-02-21 05:23:00,
2013-02-21 00:28:00,36.0,18.7,30.13,NE,39,0.0,3.0,49,0.00,,---,0.00,VWS V14.01,2013-02-21 05:28:00,
2013-02-21 00:30:00,36.0,18.2,30.13,NE,39,0.0,3.0,48,0.00,,---,0.00,VWS V14.01,2013-02-21 05:30:00,
2013-02-21 00:33:00,35.9,18.6,30.13,NE,39,0.0,1.0,49,0.00,,---,0.00,VWS V14.01,2013-02-21 05:33:00,
2013-02-21 00:38:00,35.8,18.5,30.13,NE,38,0.0,1.0,49,0.00,,---,0.00,VWS V14.01,2013-02-21 05:38:00,
2013-02-21 00:43:00,35.6,18.3,30.13,NE,38,0.0,1.0,49,0.00,,---,0.00,VWS V14.01,2013-02-21 05:43:00,
2013-02-21 00:48:00,35.5,19.6,30.13,NE,38,0.0,1.0,52,0.00,,---,0.00,VWS V14.01,2013-02-21 05:48:00,
2013-02-21 00:53:00,35.4,18.6,30.12,NE,38,0.0,1.0,50,0.00,,---,0.00,VWS V14.01,2013-02-21 05:53:00,
2013-02-21 00:58:00,35.3,19.0,30.12,NE,39,0.0,1.0,51,0.00,,---,0.00,VWS V14.01,2013-02-21 05:58:00,
2013-02-21 01:00:00,35.3,18.1,30.12,NE,39,0.0,1.0,49,0.00,,---,0.00,VWS V14.01,2013-02-21 06:00:00,
2013-02-21 01:03:00,35.3,18.5,30.12,NE,38,0.0,1.0,50,0.00,,---,0.00,VWS V14.01,2013-02-21 06:03:00,
2013-02-21 01:08:00,35.3,18.5,30.12,NE,39,0.0,1.0,50,0.00,,---,0.00,VWS V14.01,2013-02-21 06:08:00,
2013-02-21 01:13:00,35.3,19.0,30.12,NE,39,0.0,1.0,51,0.00,,---,0.00,VWS V14.01,2013-02-21 06:13:00,
2013-02-21 01:18:00,35.3,19.5,30.12,West,263,1.0,1.0,52,0.00,,---,0.00,VWS V14.01,2013-02-21 06:18:00,
2013-02-21 01:24:00,35.2,19.8,30.12,West,264,0.0,1.0,53,0.00,,---,0.00,VWS V14.01,2013-02-21 06:24:00,
2013-02-21 01:29:00,35.0,20.0,30.13,West,266,0.0,1.0,54,0.00,,---,0.00,VWS V14.01,2013-02-21 06:29:00,
2013-02-21 01:30:00,34.9,20.0,30.13,West,264,0.0,1.0,54,0.00,,---,0.00,VWS V14.01,2013-02-21 06:30:00,
2013-02-21 01:34:00,34.8,20.3,30.13,West,264,0.0,1.0,55,0.00,,---,0.00,VWS V14.01,2013-02-21 06:34:00,
2013-02-21 01:39:00,34.7,19.8,30.13,West,264,0.0,1.0,54,0.00,,---,0.00,VWS V14.01,2013-02-21 06:39:00,
2013-02-21 01:44:00,34.7,20.2,30.13,West,264,0.0,1.0,55,0.00,,---,0.00,VWS V14.01,2013-02-21 06:44:00,
2013-02-21 01:49:00,34.6,20.5,30.12,West,264,0.0,1.0,56,0.00,,---,0.00,VWS V14.01,2013-02-21 06:49:00,
2013-02-21 01:54:00,34.5,19.6,30.12,West,264,0.0,1.0,54,0.00,,---,0.00,VWS V14.01,2013-02-21 06:54:00,
2013-02-21 01:59:00,34.5,20.9,30.12,West,264,0.0,1.0,57,0.00,,---,0.00,VWS V14.01,2013-02-21 06:59:00,
2013-02-21 02:00:00,34.4,20.8,30.12,West,264,0.0,1.0,57,0.00,,---,0.00,VWS V14.01,2013-02-21 07:00:00,
2013-02-21 02:04:00,34.3,20.7,30.13,West,264,0.0,1.0,57,0.00,,---,0.00,VWS V14.01,2013-02-21 07:04:00,
2013-02-21 02:09:00,34.1,20.5,30.13,West,271,1.0,1.0,57,0.00,,---,0.00,VWS V14.01,2013-02-21 07:09:00,
2013-02-21 02:14:00,34.1,21.3,30.12,West,271,0.0,1.0,59,0.00,,---,0.00,VWS V14.01,2013-02-21 07:14:00,
2013-02-21 02:19:00,33.6,20.8,30.13,West,271,0.0,1.0,59,0.00,,---,0.00,VWS V14.01,2013-02-21 07:19:00,
2013-02-21 02:25:00,33.2,20.4,30.14,West,271,0.0,1.0,59,0.00,,---,0.00,VWS V14.01,2013-02-21 07:25:00,
2013-02-21 02:30:00,32.9,20.9,30.14,West,271,0.0,1.0,61,0.00,,---,0.00,VWS V14.01,2013-02-21 07:30:00,
2013-02-21 02:35:00,32.8,21.2,30.14,West,271,0.0,1.0,62,0.00,,---,0.00,VWS V14.01,2013-02-21 07:35:00,
2013-02-21 02:40:00,32.2,21.0,30.14,West,271,0.0,1.0,63,0.00,,---,0.00,VWS V14.01,2013-02-21 07:40:00,
2013-02-21 02:45:00,31.8,21.0,30.14,West,271,0.0,1.0,64,0.00,,---,0.00,VWS V14.01,2013-02-21 07:45:00,
2013-02-21 02:50:00,31.6,21.6,30.14,West,271,1.0,1.0,66,0.00,,---,0.00,VWS V14.01,2013-02-21 07:50:00,
2013-02-21 02:55:00,31.4,21.7,30.14,West,271,0.0,1.0,67,0.00,,---,0.00,VWS V14.01,2013-02-21 07:55:00,
2013-02-21 03:00:00,31.0,21.3,30.15,West,271,0.0,0.0,67,0.00,,---,0.00,VWS V14.01,2013-02-21 08:00:00,
2013-02-21 03:05:00,30.7,21.4,30.15,West,271,0.0,1.0,68,0.00,,---,0.00,VWS V14.01,2013-02-21 08:05:00,
2013-02-21 03:10:00,30.5,21.2,30.14,West,271,0.0,1.0,68,0.00,,---,0.00,VWS V14.01,2013-02-21 08:10:00,
2013-02-21 03:15:00,30.5,21.6,30.15,West,271,0.0,1.0,69,0.00,,---,0.00,VWS V14.01,2013-02-21 08:15:00,
2013-02-21 03:20:00,30.2,21.3,30.14,NNE,23,1.0,2.0,69,0.00,,---,0.00,VWS V14.01,2013-02-21 08:20:00,
2013-02-21 03:25:00,30.4,20.8,30.14,NNE,24,0.0,2.0,67,0.00,,---,0.00,VWS V14.01,2013-02-21 08:25:00,
2013-02-21 03:30:00,30.5,21.6,30.14,NNE,25,0.0,1.0,69,0.00,,---,0.00,VWS V14.01,2013-02-21 08:30:00,
2013-02-21 03:36:00,30.4,21.8,30.14,NNE,25,0.0,1.0,70,0.00,,---,0.00,VWS V14.01,2013-02-21 08:36:00,
2013-02-21 03:41:00,30.2,21.6,30.15,NNE,25,0.0,1.0,70,0.00,,---,0.00,VWS V14.01,2013-02-21 08:41:00,
2013-02-21 03:46:00,29.8,21.6,30.15,NNE,25,0.0,1.0,71,0.00,,---,0.00,VWS V14.01,2013-02-21 08:46:00,
2013-02-21 03:51:00,29.6,21.7,30.15,West,281,1.0,1.0,72,0.00,,---,0.00,VWS V14.01,2013-02-21 08:51:00,
2013-02-21 03:56:00,29.6,21.4,30.15,West,281,0.0,2.0,71,0.00,,---,0.00,VWS V14.01,2013-02-21 08:56:00,
2013-02-21 04:00:00,29.6,21.0,30.15,West,281,0.0,2.0,70,0.00,,---,0.00,VWS V14.01,2013-02-21 09:00:00,
2013-02-21 04:01:00,29.6,21.4,30.15,West,281,0.0,0.0,71,0.00,,---,0.00,VWS V14.01,2013-02-21 09:01:00,
2013-02-21 04:06:00,29.2,21.0,30.16,West,281,0.0,0.0,71,0.00,,---,0.00,VWS V14.01,2013-02-21 09:06:00,
2013-02-21 04:11:00,29.0,21.4,30.16,West,281,1.0,1.0,73,0.00,,---,0.00,VWS V14.01,2013-02-21 09:11:00,
2013-02-21 04:16:00,28.9,21.0,30.15,West,281,0.0,1.0,72,0.00,,---,0.00,VWS V14.01,2013-02-21 09:16:00,
2013-02-21 04:21:00,28.7,20.8,30.16,West,281,0.0,1.0,72,0.00,,---,0.00,VWS V14.01,2013-02-21 09:21:00,
2013-02-21 04:26:00,28.5,20.6,30.16,West,281,0.0,1.0,72,0.00,,---,0.00,VWS V14.01,2013-02-21 09:26:00,
2013-02-21 04:30:00,28.4,20.5,30.16,West,281,0.0,1.0,72,0.00,,---,0.00,VWS V14.01,2013-02-21 09:30:00,
2013-02-21 04:32:00,28.3,20.8,30.16,West,281,0.0,0.0,73,0.00,,---,0.00,VWS V14.01,2013-02-21 09:32:00,
2013-02-21 04:37:00,28.3,20.4,30.16,West,281,0.0,1.0,72,0.00,,---,0.00,VWS V14.01,2013-02-21 09:37:00,
2013-02-21 04:42:00,28.2,20.7,30.16,West,281,0.0,1.0,73,0.00,,---,0.00,VWS V14.01,2013-02-21 09:42:00,
2013-02-21 04:47:00,28.2,21.3,30.16,West,281,0.0,1.0,75,0.00,,---,0.00,VWS V14.01,2013-02-21 09:47:00,
2013-02-21 04:52:00,28.2,21.0,30.16,West,281,1.0,1.0,74,0.00,,---,0.00,VWS V14.01,2013-02-21 09:52:00,
2013-02-21 04:57:00,28.1,20.9,30.16,West,281,0.0,1.0,74,0.00,,---,0.00,VWS V14.01,2013-02-21 09:57:00,
2013-02-21 05:00:00,28.0,20.8,30.16,West,281,0.0,1.0,74,0.00,,---,0.00,VWS V14.01,2013-02-21 10:00:00,
2013-02-21 05:02:00,28.0,20.8,30.16,West,281,0.0,0.0,74,0.00,,---,0.00,VWS V14.01,2013-02-21 10:02:00,
2013-02-21 05:07:00,28.0,21.1,30.16,West,281,0.0,0.0,75,0.00,,---,0.00,VWS V14.01,2013-02-21 10:07:00,
2013-02-21 05:12:00,28.0,21.1,30.16,West,281,0.0,0.0,75,0.00,,---,0.00,VWS V14.01,2013-02-21 10:12:00,
2013-02-21 05:17:00,28.0,21.4,30.17,West,281,0.0,0.0,76,0.00,,---,0.00,VWS V14.01,2013-02-21 10:17:00,
2013-02-21 05:23:00,28.1,21.2,30.17,West,281,0.0,1.0,75,0.00,,---,0.00,VWS V14.01,2013-02-21 10:23:00,
2013-02-21 05:28:00,28.0,21.4,30.17,West,281,0.0,1.0,76,0.00,,---,0.00,VWS V14.01,2013-02-21 10:28:00,
2013-02-21 05:30:00,28.0,21.4,30.17,West,281,0.0,1.0,76,0.00,,---,0.00,VWS V14.01,2013-02-21 10:30:00,
2013-02-21 05:33:00,28.0,20.8,30.17,West,281,1.0,1.0,74,0.00,,---,0.00,VWS V14.01,2013-02-21 10:33:00,
2013-02-21 05:38:00,28.1,21.2,30.17,West,281,0.0,1.0,75,0.00,,---,0.00,VWS V14.01,2013-02-21 10:38:00,
2013-02-21 05:43:00,28.1,20.9,30.17,West,281,0.0,1.0,74,0.00,,---,0.00,VWS V14.01,2013-02-21 10:43:00,
2013-02-21 05:48:00,27.8,20.6,30.18,West,281,0.0,1.0,74,0.00,,---,0.00,VWS V14.01,2013-02-21 10:48:00,
2013-02-21 05:53:00,27.6,20.7,30.18,West,281,0.0,1.0,75,0.00,,---,0.00,VWS V14.01,2013-02-21 10:53:00,
2013-02-21 05:58:00,27.4,20.5,30.18,West,281,0.0,1.0,75,0.00,,---,0.00,VWS V14.01,2013-02-21 10:58:00,
2013-02-21 06:00:00,27.4,20.5,30.17,West,281,0.0,1.0,75,0.00,,---,0.00,VWS V14.01,2013-02-21 11:00:00,
2013-02-21 06:03:00,27.7,20.8,30.18,West,281,0.0,1.0,75,0.00,,---,0.00,VWS V14.01,2013-02-21 11:03:00,
2013-02-21 06:08:00,27.7,20.5,30.18,WNW,283,0.0,1.0,74,0.00,,---,0.00,VWS V14.01,2013-02-21 11:08:00,
2013-02-21 06:13:00,27.5,20.9,30.18,West,281,0.0,1.0,76,0.00,,---,0.00,VWS V14.01,2013-02-21 11:13:00,
2013-02-21 06:19:00,27.3,20.8,30.18,West,281,0.0,1.0,76,0.00,,---,0.00,VWS V14.01,2013-02-21 11:19:00,
2013-02-21 06:24:00,27.5,21.5,30.19,West,281,0.0,1.0,78,0.00,,---,0.00,VWS V14.01,2013-02-21 11:24:00,
2013-02-21 06:29:00,27.5,20.9,30.19,West,281,0.0,1.0,76,0.00,,---,0.00,VWS V14.01,2013-02-21 11:29:00,
2013-02-21 06:30:00,27.5,20.9,30.19,West,281,0.0,1.0,76,0.00,,---,0.00,VWS V14.01,2013-02-21 11:30:00,
2013-02-21 06:34:00,27.2,20.6,30.19,West,281,0.0,0.0,76,0.00,,---,0.00,VWS V14.01,2013-02-21 11:34:00,
2013-02-21 06:39:00,27.2,21.0,30.19,West,281,0.0,0.0,77,0.00,,---,0.00,VWS V14.01,2013-02-21 11:39:00,
2013-02-21 06:44:00,27.4,21.1,30.19,West,281,0.0,0.0,77,0.00,,---,0.00,VWS V14.01,2013-02-21 11:44:00,
2013-02-21 06:49:00,27.2,20.6,30.19,West,281,0.0,0.0,76,0.00,,---,0.00,VWS V14.01,2013-02-21 11:49:00,
2013-02-21 06:54:00,27.0,20.8,30.20,West,281,0.0,0.0,77,0.00,,---,0.00,VWS V14.01,2013-02-21 11:54:00,
2013-02-21 06:59:00,27.0,21.4,30.20,West,281,0.0,0.0,79,0.00,,---,0.00,VWS V14.01,2013-02-21 11:59:00,
2013-02-21 07:00:00,27.0,21.4,30.20,West,281,0.0,0.0,79,0.00,,---,0.00,VWS V14.01,2013-02-21 12:00:00,
2013-02-21 07:04:00,27.1,21.2,30.21,West,281,0.0,0.0,78,0.00,,---,0.00,VWS V14.01,2013-02-21 12:04:00,
2013-02-21 07:10:00,27.0,21.1,30.21,West,281,0.0,0.0,78,0.00,,---,0.00,VWS V14.01,2013-02-21 12:10:00,
2013-02-21 07:15:00,26.9,21.6,30.21,West,281,0.0,0.0,80,0.00,,---,0.00,VWS V14.01,2013-02-21 12:15:00,
2013-02-21 07:20:00,27.0,21.4,30.21,West,281,0.0,0.0,79,0.00,,---,0.00,VWS V14.01,2013-02-21 12:20:00,
2013-02-21 07:25:00,26.9,21.3,30.20,West,281,0.0,0.0,79,0.00,,---,0.00,VWS V14.01,2013-02-21 12:25:00,
2013-02-21 07:30:00,26.9,21.3,30.20,West,281,0.0,0.0,79,0.00,,---,0.00,VWS V14.01,2013-02-21 12:30:00,
2013-02-21 07:35:00,27.1,21.8,30.20,West,281,0.0,0.0,80,0.00,,---,0.00,VWS V14.01,2013-02-21 12:35:00,
2013-02-21 07:40:00,27.3,22.0,30.20,West,281,0.0,0.0,80,0.00,,---,0.00,VWS V14.01,2013-02-21 12:40:00,
2013-02-21 07:45:00,27.7,22.4,30.20,West,281,0.0,0.0,80,0.00,,---,0.00,VWS V14.01,2013-02-21 12:45:00,
2013-02-21 07:50:00,27.9,22.2,30.21,West,281,0.0,0.0,79,0.00,,---,0.00,VWS V14.01,2013-02-21 12:50:00,
2013-02-21 07:55:00,28.1,22.1,30.21,WNW,282,0.0,0.0,78,0.00,,---,0.00,VWS V14.01,2013-02-21 12:55:00,
2013-02-21 08:00:00,28.6,22.6,30.21,West,281,0.0,0.0,78,0.00,,---,0.00,VWS V14.01,2013-02-21 13:00:00,
2013-02-21 08:05:00,29.1,22.5,30.21,West,281,0.0,0.0,76,0.00,,---,0.00,VWS V14.01,2013-02-21 13:05:00,
2013-02-21 08:10:00,29.7,21.8,30.21,West,281,0.0,0.0,72,0.00,,---,0.00,VWS V14.01,2013-02-21 13:10:00,
2013-02-21 08:15:00,30.4,20.8,30.21,WNW,282,0.0,1.0,67,0.00,,---,0.00,VWS V14.01,2013-02-21 13:15:00,
2013-02-21 08:20:00,31.3,19.8,30.22,NNE,26,0.0,2.0,62,0.00,,---,0.00,VWS V14.01,2013-02-21 13:20:00,
2013-02-21 08:26:00,32.0,19.3,30.22,NNW,327,0.0,2.0,59,0.00,,---,0.00,VWS V14.01,2013-02-21 13:26:00,
2013-02-21 08:30:00,32.4,19.7,30.22,NNE,26,0.0,2.0,59,0.00,,---,0.00,VWS V14.01,2013-02-21 13:30:00,
2013-02-21 08:31:00,32.6,19.9,30.22,NNE,26,0.0,1.0,59,0.00,,---,0.00,VWS V14.01,2013-02-21 13:31:00,
2013-02-21 08:36:00,32.9,19.8,30.22,NNE,26,0.0,1.0,58,0.00,,---,0.00,VWS V14.01,2013-02-21 13:36:00,
2013-02-21 08:41:00,33.4,19.8,30.22,North,11,1.0,1.0,57,0.00,,---,0.00,VWS V14.01,2013-02-21 13:41:00,
2013-02-21 08:46:00,33.8,19.8,30.22,WNW,291,0.0,1.0,56,0.00,,---,0.00,VWS V14.01,2013-02-21 13:46:00,
2013-02-21 08:51:00,34.2,19.3,30.22,WNW,293,0.0,1.0,54,0.00,,---,0.00,VWS V14.01,2013-02-21 13:51:00,
2013-02-21 08:56:00,34.4,18.6,30.23,NE,51,2.0,5.0,52,0.00,,---,0.00,VWS V14.01,2013-02-21 13:56:00,
2013-02-21 09:00:00,34.5,19.1,30.22,NW,311,1.0,5.0,53,0.00,,---,0.00,VWS V14.01,2013-02-21 14:00:00,
2013-02-21 09:01:00,34.6,19.2,30.22,WNW,300,0.0,1.0,53,0.00,,---,0.00,VWS V14.01,2013-02-21 14:01:00,
2013-02-21 09:06:00,35.0,19.2,30.22,WNW,300,0.0,1.0,52,0.00,,---,0.00,VWS V14.01,2013-02-21 14:06:00,
2013-02-21 09:11:00,35.5,19.6,30.23,West,274,0.0,1.0,52,0.00,,---,0.00,VWS V14.01,2013-02-21 14:11:00,
2013-02-21 09:16:00,35.9,19.1,30.23,NE,41,3.0,3.0,50,0.00,,---,0.00,VWS V14.01,2013-02-21 14:16:00,
2013-02-21 09:22:00,36.0,18.7,30.23,NNE,18,1.0,4.0,49,0.00,,---,0.00,VWS V14.01,2013-02-21 14:22:00,
2013-02-21 09:27:00,36.4,20.0,30.23,West,280,0.0,4.0,51,0.00,,---,0.00,VWS V14.01,2013-02-21 14:27:00,
2013-02-21 09:30:00,36.5,18.7,30.23,WSW,249,1.0,4.0,48,0.00,,---,0.00,VWS V14.01,2013-02-21 14:30:00,
2013-02-21 09:32:00,36.7,19.4,30.23,WNW,294,1.0,2.0,49,0.00,,---,0.00,VWS V14.01,2013-02-21 14:32:00,
2013-02-21 09:37:00,36.9,18.6,30.23,SSW,198,0.0,3.0,47,0.00,,---,0.00,VWS V14.01,2013-02-21 14:37:00,
2013-02-21 09:42:00,37.0,19.1,30.22,North,356,3.0,3.0,48,0.00,,---,0.00,VWS V14.01,2013-02-21 14:42:00,
2013-02-21 09:47:00,37.2,18.8,30.22,East,98,0.0,3.0,47,0.00,,---,0.00,VWS V14.01,2013-02-21 14:47:00,
2013-02-21 09:52:00,37.5,19.1,30.22,WSW,245,1.0,3.0,47,0.00,,---,0.00,VWS V14.01,2013-02-21 14:52:00,
2013-02-21 09:57:00,37.9,18.5,30.22,North,11,1.0,3.0,45,0.00,,---,0.00,VWS V14.01,2013-02-21 14:57:00,
2013-02-21 10:00:00,38.1,18.6,30.22,West,281,2.0,3.0,45,0.00,,---,0.00,VWS V14.01,2013-02-21 15:00:00,
2013-02-21 10:02:00,38.4,19.9,30.22,SSE,153,0.0,2.0,47,0.00,,---,0.00,VWS V14.01,2013-02-21 15:02:00,
2013-02-21 10:07:00,38.9,19.9,30.22,NNW,345,4.0,5.0,46,0.00,,---,0.00,VWS V14.01,2013-02-21 15:07:00,
2013-02-21 10:12:00,38.9,18.9,30.22,ESE,108,0.0,5.0,44,0.00,,---,0.00,VWS V14.01,2013-02-21 15:12:00,
2013-02-21 10:18:00,39.5,19.4,30.21,WNW,285,1.0,5.0,44,0.00,,---,0.00,VWS V14.01,2013-02-21 15:18:00,
2013-02-21 10:23:00,39.8,19.7,30.21,North,7,1.0,5.0,44,0.00,,---,0.00,VWS V14.01,2013-02-21 15:23:00,
2013-02-21 10:28:00,40.0,19.3,30.21,North,8,0.0,5.0,43,0.00,,---,0.00,VWS V14.01,2013-02-21 15:28:00,
2013-02-21 10:30:00,40.0,19.3,30.21,North,9,0.0,5.0,43,0.00,,---,0.00,VWS V14.01,2013-02-21 15:30:00,
2013-02-21 10:33:00,40.4,19.7,30.21,WSW,257,0.0,2.0,43,0.00,,---,0.00,VWS V14.01,2013-02-21 15:33:00,
2013-02-21 10:38:00,41.0,19.7,30.21,West,260,1.0,2.0,42,0.00,,---,0.00,VWS V14.01,2013-02-21 15:38:00,
2013-02-21 10:43:00,41.4,20.0,30.21,WNW,291,0.0,3.0,42,0.00,,---,0.00,VWS V14.01,2013-02-21 15:43:00,
2013-02-21 10:48:00,41.7,20.3,30.21,SW,227,2.0,3.0,42,0.00,,---,0.00,VWS V14.01,2013-02-21 15:48:00,
2013-02-21 10:53:00,41.9,19.9,30.21,WNW,290,2.0,3.0,41,0.00,,---,0.00,VWS V14.01,2013-02-21 15:53:00,
2013-02-21 10:58:00,42.4,19.8,30.21,West,271,2.0,4.0,40,0.00,,---,0.00,VWS V14.01,2013-02-21 15:58:00,
2013-02-21 11:00:00,42.5,19.3,30.21,WNW,283,2.0,4.0,39,0.00,,---,0.00,VWS V14.01,2013-02-21 16:00:00,
2013-02-21 11:03:00,42.7,20.7,30.21,ENE,65,1.0,2.0,41,0.00,,---,0.00,VWS V14.01,2013-02-21 16:03:00,
2013-02-21 11:09:00,43.0,19.1,30.21,North,3,1.0,4.0,38,0.00,,---,0.00,VWS V14.01,2013-02-21 16:09:00,
2013-02-21 11:14:00,43.3,20.0,30.21,WNW,291,2.0,4.0,39,0.00,,---,0.00,VWS V14.01,2013-02-21 16:14:00,
2013-02-21 11:19:00,43.1,19.2,30.21,NW,307,1.0,6.0,38,0.00,,---,0.00,VWS V14.01,2013-02-21 16:19:00,
2013-02-21 11:24:00,43.1,19.2,30.20,NNW,335,1.0,6.0,38,0.00,,---,0.00,VWS V14.01,2013-02-21 16:24:00,
2013-02-21 11:29:00,43.6,19.7,30.21,North,4,2.0,6.0,38,0.00,,---,0.00,VWS V14.01,2013-02-21 16:29:00,
2013-02-21 11:30:00,43.6,19.7,30.21,North,356,1.0,6.0,38,0.00,,---,0.00,VWS V14.01,2013-02-21 16:30:00,
2013-02-21 11:34:00,44.0,20.0,30.21,NW,321,2.0,8.0,38,0.00,,---,0.00,VWS V14.01,2013-02-21 16:34:00,
2013-02-21 11:39:00,43.6,19.7,30.21,ESE,118,0.0,8.0,38,0.00,,---,0.00,VWS V14.01,2013-02-21 16:39:00,
2013-02-21 11:44:00,44.3,20.9,30.20,South,191,1.0,8.0,39,0.00,,---,0.00,VWS V14.01,2013-02-21 16:44:00,
2013-02-21 11:49:00,44.9,20.2,30.20,SW,226,1.0,8.0,37,0.00,,---,0.00,VWS V14.01,2013-02-21 16:49:00,
2013-02-21 11:55:00,44.7,20.0,30.20,NE,44,0.0,8.0,37,0.00,,---,0.00,VWS V14.01,2013-02-21 16:55:00,
2013-02-21 12:00:00,45.0,20.3,30.20,West,276,1.0,8.0,37,0.00,,---,0.00,VWS V14.01,2013-02-21 17:00:00,
2013-02-21 12:05:00,45.7,20.9,30.20,NNW,342,1.0,3.0,37,0.00,,---,0.00,VWS V14.01,2013-02-21 17:05:00,
2013-02-21 12:10:00,45.8,20.4,30.19,East,89,0.0,3.0,36,0.00,,---,0.00,VWS V14.01,2013-02-21 17:10:00,
2013-02-21 12:15:00,46.4,20.9,30.19,NE,46,5.0,7.0,36,0.00,,---,0.00,VWS V14.01,2013-02-21 17:15:00,
2013-02-21 12:20:00,46.0,20.6,30.19,NE,44,2.0,8.0,36,0.00,,---,0.00,VWS V14.01,2013-02-21 17:20:00,
2013-02-21 12:25:00,46.6,20.4,30.19,ENE,76,4.0,8.0,35,0.00,,---,0.00,VWS V14.01,2013-02-21 17:25:00,
2013-02-21 12:30:00,46.0,20.6,30.19,North,358,1.0,2.0,36,0.00,,---,0.00,VWS V14.01,2013-02-21 17:30:00,
2013-02-21 12:35:00,46.9,21.4,30.18,ENE,65,1.0,3.0,36,0.00,,---,0.00,VWS V14.01,2013-02-21 17:35:00,
2013-02-21 12:41:00,47.9,21.6,30.18,ENE,71,2.0,3.0,35,0.00,,---,0.00,VWS V14.01,2013-02-21 17:41:00,
2013-02-21 12:46:00,48.5,21.4,30.17,NE,34,0.0,5.0,34,0.00,,---,0.00,VWS V14.01,2013-02-21 17:46:00,
2013-02-21 12:51:00,49.3,22.8,30.17,NW,323,0.0,6.0,35,0.00,,---,0.00,VWS V14.01,2013-02-21 17:51:00,
2013-02-21 12:56:00,50.7,21.9,30.17,SE,136,1.0,6.0,32,0.00,,---,0.00,VWS V14.01,2013-02-21 17:56:00,
2013-02-21 13:00:00,51.6,22.7,30.17,WNW,297,0.0,6.0,32,0.00,,---,0.00,VWS V14.01,2013-02-21 18:00:00,
2013-02-21 13:01:00,52.0,23.8,30.17,South,172,0.0,1.0,33,0.00,,---,0.00,VWS V14.01,2013-02-21 18:01:00,
2013-02-21 13:06:00,52.6,22.1,30.17,NE,41,4.0,5.0,30,0.00,,---,0.00,VWS V14.01,2013-02-21 18:06:00,
2013-02-21 13:11:00,52.2,21.7,30.16,West,262,1.0,5.0,30,0.00,,---,0.00,VWS V14.01,2013-02-21 18:11:00,
2013-02-21 13:16:00,52.0,21.5,30.16,North,6,1.0,5.0,30,0.00,,---,0.00,VWS V14.01,2013-02-21 18:16:00,
2013-02-21 13:21:00,53.0,22.4,30.16,NE,47,2.0,5.0,30,0.00,,---,0.00,VWS V14.01,2013-02-21 18:21:00,
2013-02-21 13:26:00,53.4,21.1,30.15,NE,37,2.0,5.0,28,0.00,,---,0.00,VWS V14.01,2013-02-21 18:26:00,
2013-02-21 13:30:00,53.0,22.4,30.15,NE,44,0.0,5.0,30,0.00,,---,0.00,VWS V14.01,2013-02-21 18:30:00,
2013-02-21 13:31:00,53.3,21.9,30.15,NE,49,1.0,3.0,29,0.00,,---,0.00,VWS V14.01,2013-02-21 18:31:00,
2013-02-21 13:37:00,54.4,23.6,30.14,West,271,0.0,3.0,30,0.00,,---,0.00,VWS V14.01,2013-02-21 18:37:00,
2013-02-21 13:42:00,55.1,22.6,30.14,NE,46,0.0,6.0,28,0.00,,---,0.00,VWS V14.01,2013-02-21 18:42:00,
2013-02-21 13:47:00,56.3,21.9,30.14,NE,43,2.0,6.0,26,0.00,,---,0.00,VWS V14.01,2013-02-21 18:47:00,
2013-02-21 13:52:00,55.3,21.0,30.14,NNE,13,0.0,6.0,26,0.00,,---,0.00,VWS V14.01,2013-02-21 18:52:00,
2013-02-21 13:57:00,54.8,20.6,30.14,West,281,1.0,6.0,26,0.00,,---,0.00,VWS V14.01,2013-02-21 18:57:00,
2013-02-21 14:00:00,54.9,20.7,30.13,NW,316,1.0,6.0,26,0.00,,---,0.00,VWS V14.01,2013-02-21 19:00:00,
2013-02-21 14:02:00,54.7,20.5,30.13,ESE,108,1.0,2.0,26,0.00,,---,0.00,VWS V14.01,2013-02-21 19:02:00,
2013-02-21 14:07:00,55.2,23.5,30.13,ENE,70,1.0,5.0,29,0.00,,---,0.00,VWS V14.01,2013-02-21 19:07:00,
2013-02-21 14:12:00,55.8,21.5,30.12,East,89,1.0,5.0,26,0.00,,---,0.00,VWS V14.01,2013-02-21 19:12:00,
2013-02-21 14:17:00,55.2,20.0,30.13,West,280,0.0,5.0,25,0.00,,---,0.00,VWS V14.01,2013-02-21 19:17:00,
2013-02-21 14:22:00,54.9,20.7,30.13,South,191,0.0,5.0,26,0.00,,---,0.00,VWS V14.01,2013-02-21 19:22:00,
2013-02-21 14:28:00,55.2,22.7,30.13,NNW,327,1.0,5.0,28,0.00,,---,0.00,VWS V14.01,2013-02-21 19:28:00,
2013-02-21 14:30:00,55.3,21.9,30.13,WNW,284,0.0,5.0,27,0.00,,---,0.00,VWS V14.01,2013-02-21 19:30:00,
2013-02-21 14:33:00,55.1,19.9,30.13,WNW,285,1.0,2.0,25,0.00,,---,0.00,VWS V14.01,2013-02-21 19:33:00,
2013-02-21 14:38:00,54.3,19.2,30.13,NE,41,1.0,6.0,25,0.00,,---,0.00,VWS V14.01,2013-02-21 19:38:00,
2013-02-21 14:43:00,53.5,19.5,30.12,West,278,1.0,8.0,26,0.00,,---,0.00,VWS V14.01,2013-02-21 19:43:00,
2013-02-21 14:48:00,54.1,20.9,30.12,NNE,13,1.0,8.0,27,0.00,,---,0.00,VWS V14.01,2013-02-21 19:48:00,
2013-02-21 14:53:00,54.0,19.9,30.12,North,6,5.0,8.0,26,0.00,,---,0.00,VWS V14.01,2013-02-21 19:53:00,
2013-02-21 14:58:00,53.6,19.6,30.12,NE,54,1.0,8.0,26,0.00,,---,0.00,VWS V14.01,2013-02-21 19:58:00,
2013-02-21 15:00:00,53.4,19.4,30.12,NE,45,1.0,8.0,26,0.00,,---,0.00,VWS V14.01,2013-02-21 20:00:00,
2013-02-21 15:03:00,53.3,20.2,30.12,North,8,4.0,4.0,27,0.00,,---,0.00,VWS V14.01,2013-02-21 20:03:00,
2013-02-21 15:08:00,52.9,19.9,30.12,NNE,25,2.0,5.0,27,0.00,,---,0.00,VWS V14.01,2013-02-21 20:08:00,
2013-02-21 15:13:00,52.6,19.6,30.12,ENE,65,1.0,8.0,27,0.00,,---,0.00,VWS V14.01,2013-02-21 20:13:00,
2013-02-21 15:18:00,52.6,19.6,30.12,NE,44,3.0,8.0,27,0.00,,---,0.00,VWS V14.01,2013-02-21 20:18:00,
2013-02-21 15:23:00,52.7,20.5,30.12,WNW,291,1.0,8.0,28,0.00,,---,0.00,VWS V14.01,2013-02-21 20:23:00,
2013-02-21 15:28:00,52.8,19.8,30.12,NE,49,1.0,8.0,27,0.00,,---,0.00,VWS V14.01,2013-02-21 20:28:00,
2013-02-21 15:30:00,52.8,21.4,30.12,North,351,2.0,8.0,29,0.00,,---,0.00,VWS V14.01,2013-02-21 20:30:00,
2013-02-21 15:33:00,52.7,20.5,30.12,East,85,1.0,2.0,28,0.00,,---,0.00,VWS V14.01,2013-02-21 20:33:00,
2013-02-21 15:38:00,52.6,19.6,30.12,West,276,1.0,3.0,27,0.00,,---,0.00,VWS V14.01,2013-02-21 20:38:00,
2013-02-21 15:43:00,52.6,19.6,30.12,NNE,26,2.0,6.0,27,0.00,,---,0.00,VWS V14.01,2013-02-21 20:43:00,
2013-02-21 15:48:00,52.3,20.2,30.13,North,352,1.0,6.0,28,0.00,,---,0.00,VWS V14.01,2013-02-21 20:48:00,
2013-02-21 15:54:00,52.2,19.2,30.12,SW,217,1.0,6.0,27,0.00,,---,0.00,VWS V14.01,2013-02-21 20:54:00,
2013-02-21 15:59:00,52.2,19.2,30.12,North,11,0.0,6.0,27,0.00,,---,0.00,VWS V14.01,2013-02-21 20:59:00,
2013-02-21 16:00:00,52.2,20.9,30.13,ENE,66,0.0,6.0,29,0.00,,---,0.00,VWS V14.01,2013-02-21 21:00:00,
2013-02-21 16:04:00,52.1,20.0,30.12,ESE,109,2.0,4.0,28,0.00,,---,0.00,VWS V14.01,2013-02-21 21:04:00,
2013-02-21 16:09:00,52.0,19.1,30.12,NE,36,2.0,6.0,27,0.00,,---,0.00,VWS V14.01,2013-02-21 21:09:00,
2013-02-21 16:14:00,51.9,19.8,30.13,NE,51,1.0,6.0,28,0.00,,---,0.00,VWS V14.01,2013-02-21 21:14:00,
2013-02-21 16:19:00,52.1,19.2,30.13,ESE,121,0.0,6.0,27,0.00,,---,0.00,VWS V14.01,2013-02-21 21:19:00,
2013-02-21 16:24:00,52.3,19.3,30.13,NE,53,1.0,6.0,27,0.00,,---,0.00,VWS V14.01,2013-02-21 21:24:00,
2013-02-21 16:29:00,52.2,19.2,30.12,NW,323,3.0,6.0,27,0.00,,---,0.00,VWS V14.01,2013-02-21 21:29:00,
2013-02-21 16:30:00,52.2,19.2,30.12,WNW,288,2.0,6.0,27,0.00,,---,0.00,VWS V14.01,2013-02-21 21:30:00,
2013-02-21 16:34:00,52.4,19.4,30.12,NNW,347,1.0,5.0,27,0.00,,---,0.00,VWS V14.01,2013-02-21 21:34:00,
2013-02-21 16:40:00,52.6,20.4,30.13,North,354,1.0,5.0,28,0.00,,---,0.00,VWS V14.01,2013-02-21 21:40:00,
2013-02-21 16:45:00,52.1,20.8,30.13,WNW,286,1.0,5.0,29,0.00,,---,0.00,VWS V14.01,2013-02-21 21:45:00,
2013-02-21 16:50:00,52.1,20.8,30.13,West,276,0.0,5.0,29,0.00,,---,0.00,VWS V14.01,2013-02-21 21:50:00,
2013-02-21 16:55:00,52.0,21.5,30.14,NE,44,0.0,5.0,30,0.00,,---,0.00,VWS V14.01,2013-02-21 21:55:00,
2013-02-21 17:00:00,52.0,20.8,30.14,West,281,0.0,0.0,29,0.00,,---,0.00,VWS V14.01,2013-02-21 22:00:00,
2013-02-21 17:05:00,51.6,21.2,30.14,NE,34,1.0,3.0,30,0.00,,---,0.00,VWS V14.01,2013-02-21 22:05:00,
2013-02-21 17:10:00,51.2,21.6,30.14,NNW,345,1.0,3.0,31,0.00,,---,0.00,VWS V14.01,2013-02-21 22:10:00,
2013-02-21 17:15:00,51.1,20.8,30.15,West,281,2.0,3.0,30,0.00,,---,0.00,VWS V14.01,2013-02-21 22:15:00,
2013-02-21 17:20:00,50.9,22.1,30.15,WNW,289,1.0,5.0,32,0.00,,---,0.00,VWS V14.01,2013-02-21 22:20:00,
2013-02-21 17:25:00,50.6,21.9,30.16,North,358,1.0,5.0,32,0.00,,---,0.00,VWS V14.01,2013-02-21 22:25:00,
2013-02-21 17:30:00,50.2,21.5,30.15,ENE,78,0.0,5.0,32,0.00,,---,0.00,VWS V14.01,2013-02-21 22:30:00,
2013-02-21 17:31:00,50.2,21.5,30.15,ENE,77,0.0,0.0,32,0.00,,---,0.00,VWS V14.01,2013-02-21 22:31:00,
2013-02-21 17:36:00,49.9,21.2,30.15,North,4,1.0,2.0,32,0.00,,---,0.00,VWS V14.01,2013-02-21 22:36:00,
2013-02-21 17:41:00,49.6,21.7,30.16,NNE,22,0.0,2.0,33,0.00,,---,0.00,VWS V14.01,2013-02-21 22:41:00,
2013-02-21 17:46:00,49.3,21.4,30.16,NNE,21,1.0,2.0,33,0.00,,---,0.00,VWS V14.01,2013-02-21 22:46:00,
2013-02-21 17:51:00,49.0,21.2,30.16,NNE,15,0.0,3.0,33,0.00,,---,0.00,VWS V14.01,2013-02-21 22:51:00,
2013-02-21 17:56:00,48.7,23.0,30.17,NNE,13,0.0,3.0,36,0.00,,---,0.00,VWS V14.01,2013-02-21 22:56:00,
2013-02-21 18:00:00,48.5,22.8,30.17,NNE,13,0.0,3.0,36,0.00,,---,0.00,VWS V14.01,2013-02-21 23:00:00,
2013-02-21 18:01:00,48.4,22.7,30.17,NNE,13,0.0,0.0,36,0.00,,---,0.00,VWS V14.01,2013-02-21 23:01:00,
2013-02-21 18:06:00,47.9,22.9,30.17,NNE,16,0.0,1.0,37,0.00,,---,0.00,VWS V14.01,2013-02-21 23:06:00,
2013-02-21 18:11:00,47.6,22.0,30.17,NNE,16,1.0,2.0,36,0.00,,---,0.00,VWS V14.01,2013-02-21 23:11:00,
2013-02-21 18:16:00,47.5,21.9,30.17,North,4,1.0,2.0,36,0.00,,---,0.00,VWS V14.01,2013-02-21 23:16:00,
2013-02-21 18:21:00,47.3,22.4,30.17,North,4,1.0,2.0,37,0.00,,---,0.00,VWS V14.01,2013-02-21 23:21:00,
2013-02-21 18:26:00,47.2,22.3,30.17,NE,46,0.0,2.0,37,0.00,,---,0.00,VWS V14.01,2013-02-21 23:26:00,
2013-02-21 18:30:00,47.2,22.3,30.17,NE,46,1.0,2.0,37,0.00,,---,0.00,VWS V14.01,2013-02-21 23:30:00,
2013-02-21 18:31:00,47.1,22.8,30.17,NE,46,0.0,1.0,38,0.00,,---,0.00,VWS V14.01,2013-02-21 23:31:00,
2013-02-21 19:00:00,46.8,21.9,30.15,NNE,22,2.0,9.0,37,0.00,,---,0.00,VWS V14.01,2013-02-22 00:00:00,
2013-02-21 19:30:00,44.9,22.6,30.21,East,95,0.0,3.0,41,0.00,,---,0.00,VWS V14.01,2013-02-22 00:30:00,
2013-02-21 19:42:00,45.7,22.2,30.20,NNE,28,0.0,2.0,39,0.00,,---,0.00,VWS V14.01,2013-02-22 00:42:00,
2013-02-21 19:47:00,45.5,22.0,30.21,NNE,29,1.0,2.0,39,0.00,,---,0.00,VWS V14.01,2013-02-22 00:47:00,
2013-02-21 19:53:00,45.4,22.5,30.21,NNE,28,0.0,2.0,40,0.00,,---,0.00,VWS V14.01,2013-02-22 00:53:00,
2013-02-21 19:58:00,45.1,22.2,30.21,NNE,29,0.0,2.0,40,0.00,,---,0.00,VWS V14.01,2013-02-22 00:58:00,
2013-02-21 20:00:00,44.5,22.3,30.21,NE,49,2.0,6.0,41,0.00,,---,0.00,VWS V14.01,2013-02-22 01:00:00,
2013-02-21 20:03:00,45.2,22.9,30.21,NE,34,0.0,2.0,41,0.00,,---,0.00,VWS V14.01,2013-02-22 01:03:00,
2013-02-21 20:08:00,45.2,22.3,30.21,NE,40,0.0,2.0,40,0.00,,---,0.00,VWS V14.01,2013-02-22 01:08:00,
2013-02-21 20:13:00,45.1,22.2,30.21,NE,51,2.0,2.0,40,0.00,,---,0.00,VWS V14.01,2013-02-22 01:13:00,
2013-02-21 20:18:00,45.1,22.2,30.21,NE,41,1.0,3.0,40,0.00,,---,0.00,VWS V14.01,2013-02-22 01:18:00,
2013-02-21 20:24:00,45.0,22.1,30.21,NE,44,0.0,3.0,40,0.00,,---,0.00,VWS V14.01,2013-02-22 01:24:00,
2013-02-21 20:29:00,44.9,22.6,30.21,East,95,0.0,3.0,41,0.00,,---,0.00,VWS V14.01,2013-02-22 01:29:00,
2013-02-21 20:30:00,44.5,22.3,30.21,ESE,105,0.0,4.0,41,0.00,,---,0.00,VWS V14.01,2013-02-22 01:30:00,
2013-02-21 20:34:00,44.8,22.5,30.21,ENE,68,1.0,1.0,41,0.00,,---,0.00,VWS V14.01,2013-02-22 01:34:00,
2013-02-21 20:39:00,44.7,22.5,30.21,NE,44,0.0,4.0,41,0.00,,---,0.00,VWS V14.01,2013-02-22 01:39:00,
2013-02-21 20:44:00,44.7,22.5,30.22,NE,44,1.0,4.0,41,0.00,,---,0.00,VWS V14.01,2013-02-22 01:44:00,
2013-02-21 20:49:00,44.6,22.4,30.21,NE,46,1.0,4.0,41,0.00,,---,0.00,VWS V14.01,2013-02-22 01:49:00,
2013-02-21 20:54:00,44.5,22.3,30.21,ENE,61,1.0,4.0,41,0.00,,---,0.00,VWS V14.01,2013-02-22 01:54:00,
2013-02-21 20:59:00,44.5,22.3,30.21,NE,51,0.0,4.0,41,0.00,,---,0.00,VWS V14.01,2013-02-22 01:59:00,
2013-02-21 21:00:00,44.4,22.2,30.22,ENE,77,4.0,10.0,41,0.00,,---,0.00,VWS V14.01,2013-02-22 02:00:00,
2013-02-21 21:04:00,44.5,22.3,30.21,East,89,1.0,4.0,41,0.00,,---,0.00,VWS V14.01,2013-02-22 02:04:00,
2013-02-21 21:09:00,44.4,22.2,30.21,NNE,29,1.0,4.0,41,0.00,,---,0.00,VWS V14.01,2013-02-22 02:09:00,
2013-02-21 21:14:00,44.3,22.1,30.20,ENE,58,1.0,4.0,41,0.00,,---,0.00,VWS V14.01,2013-02-22 02:14:00,
2013-02-21 21:19:00,44.4,22.2,30.20,ENE,60,1.0,4.0,41,0.00,,---,0.00,VWS V14.01,2013-02-22 02:19:00,
2013-02-21 21:24:00,44.4,22.2,30.21,ENE,78,0.0,4.0,41,0.00,,---,0.00,VWS V14.01,2013-02-22 02:24:00,
2013-02-21 21:29:00,44.5,22.3,30.21,ESE,105,1.0,4.0,41,0.00,,---,0.00,VWS V14.01,2013-02-22 02:29:00,
2013-02-21 21:30:00,43.6,22.6,30.23,NE,46,4.0,10.0,43,0.00,,---,0.00,VWS V14.01,2013-02-22 02:30:00,
2013-02-21 21:35:00,44.5,22.3,30.21,NNE,32,3.0,7.0,41,0.00,,---,0.00,VWS V14.01,2013-02-22 02:35:00,
2013-02-21 21:40:00,44.5,22.3,30.21,NE,48,2.0,7.0,41,0.00,,---,0.00,VWS V14.01,2013-02-22 02:40:00,
2013-02-21 21:45:00,44.5,22.3,30.21,NE,51,3.0,7.0,41,0.00,,---,0.00,VWS V14.01,2013-02-22 02:45:00,
2013-02-21 21:50:00,44.5,22.3,30.21,East,81,0.0,7.0,41,0.00,,---,0.00,VWS V14.01,2013-02-22 02:50:00,
2013-02-21 21:55:00,44.5,22.3,30.21,ENE,62,3.0,7.0,41,0.00,,---,0.00,VWS V14.01,2013-02-22 02:55:00,
2013-02-21 22:00:00,44.4,22.2,30.22,ENE,64,5.0,5.0,41,0.00,,---,0.00,VWS V14.01,2013-02-22 03:00:00,
2013-02-21 22:05:00,44.4,22.2,30.22,NE,56,4.0,10.0,41,0.00,,---,0.00,VWS V14.01,2013-02-22 03:05:00,
2013-02-21 22:10:00,44.2,22.6,30.22,ENE,77,5.0,10.0,42,0.00,,---,0.00,VWS V14.01,2013-02-22 03:10:00,
2013-02-21 22:15:00,44.0,22.4,30.22,ENE,76,4.0,10.0,42,0.00,,---,0.00,VWS V14.01,2013-02-22 03:15:00,
2013-02-21 22:21:00,43.9,22.9,30.23,East,81,2.0,10.0,43,0.00,,---,0.00,VWS V14.01,2013-02-22 03:21:00,
2013-02-21 22:26:00,43.7,22.7,30.23,ENE,65,5.0,10.0,43,0.00,,---,0.00,VWS V14.01,2013-02-22 03:26:00,
2013-02-21 22:30:00,42.4,22.6,30.25,ENE,68,2.0,7.0,45,0.00,,---,0.00,VWS V14.01,2013-02-22 03:30:00,
2013-02-21 22:31:00,43.5,22.5,30.23,ENE,65,3.0,6.0,43,0.00,,---,0.00,VWS V14.01,2013-02-22 03:31:00,
2013-02-21 22:36:00,43.5,23.0,30.24,ENE,63,3.0,6.0,44,0.00,,---,0.00,VWS V14.01,2013-02-22 03:36:00,
2013-02-21 22:41:00,43.3,22.9,30.25,East,86,2.0,6.0,44,0.00,,---,0.00,VWS V14.01,2013-02-22 03:41:00,
2013-02-21 22:46:00,43.2,22.2,30.25,East,81,2.0,7.0,43,0.00,,---,0.00,VWS V14.01,2013-02-22 03:46:00,
2013-02-21 22:51:00,43.2,22.8,30.25,ENE,77,1.0,7.0,44,0.00,,---,0.00,VWS V14.01,2013-02-22 03:51:00,
2013-02-21 22:56:00,43.0,22.6,30.25,ENE,58,2.0,7.0,44,0.00,,---,0.00,VWS V14.01,2013-02-22 03:56:00,
2013-02-21 23:00:00,41.7,22.5,30.22,ENE,62,3.0,10.0,46,0.00,,---,0.00,VWS V14.01,2013-02-22 04:00:00,
2013-02-21 23:01:00,42.9,22.5,30.25,East,101,4.0,5.0,44,0.00,,---,0.00,VWS V14.01,2013-02-22 04:01:00,
2013-02-21 23:06:00,42.8,22.4,30.26,East,95,2.0,5.0,44,0.00,,---,0.00,VWS V14.01,2013-02-22 04:06:00,
2013-02-21 23:11:00,42.8,23.0,30.27,SE,136,1.0,5.0,45,0.00,,---,0.00,VWS V14.01,2013-02-22 04:11:00,
2013-02-21 23:17:00,42.6,22.2,30.26,ENE,57,2.0,5.0,44,0.00,,---,0.00,VWS V14.01,2013-02-22 04:17:00,
2013-02-21 23:22:00,42.5,22.7,30.25,ENE,75,2.0,5.0,45,0.00,,---,0.00,VWS V14.01,2013-02-22 04:22:00,
2013-02-21 23:27:00,42.4,22.6,30.25,East,81,3.0,6.0,45,0.00,,---,0.00,VWS V14.01,2013-02-22 04:27:00,
2013-02-21 23:30:00,41.3,22.1,30.27,NNE,22,4.0,8.0,46,0.00,,---,0.00,VWS V14.01,2013-02-22 04:30:00,
2013-02-21 23:32:00,42.3,23.0,30.25,ENE,61,3.0,5.0,46,0.00,,---,0.00,VWS V14.01,2013-02-22 04:32:00,
2013-02-21 23:37:00,42.2,22.4,30.24,ENE,75,3.0,8.0,45,0.00,,---,0.00,VWS V14.01,2013-02-22 04:37:00,
2013-02-21 23:42:00,42.1,22.8,30.24,ENE,76,2.0,8.0,46,0.00,,---,0.00,VWS V14.01,2013-02-22 04:42:00,
2013-02-21 23:47:00,42.0,22.7,30.24,East,84,7.0,8.0,46,0.00,,---,0.00,VWS V14.01,2013-02-22 04:47:00,
2013-02-21 23:52:00,41.9,22.6,30.24,NE,56,5.0,10.0,46,0.00,,---,0.00,VWS V14.01,2013-02-22 04:52:00,
2013-02-21 23:57:00,41.7,22.5,30.23,NE,39,6.0,10.0,46,0.00,,---,0.00,VWS V14.01,2013-02-22 04:57:00,